createdAt,value
2018-02-15T07:40:37.720Z,32.24
2018-02-15T07:41:42.827Z,32.48
2018-02-15T07:42:47.537Z,34.88
2018-02-15T07:43:52.297Z,34.59
2018-02-15T07:44:57.155Z,33.29
2018-02-15T07:46:03.267Z,33.42
2018-02-15T07:47:09.811Z,33.43
2018-02-15T07:48:14.677Z,33.59
2018-02-15T07:49:20.064Z,33.96
2018-02-15T07:50:25.004Z,33.18
2018-02-15T07:51:30.576Z,33.76
2018-02-15T07:52:36.619Z,34.25
2018-02-15T07:53:41.467Z,33.71
2018-02-15T07:54:46.596Z,32.90
2018-02-15T07:55:51.857Z,33.53
2018-02-15T07:56:56.684Z,32.14
2018-02-15T07:58:01.551Z,32.20
2018-02-15T07:59:06.651Z,32.21
2018-02-15T08:00:11.534Z,31.52
2018-02-15T08:01:16.291Z,32.94
2018-02-15T08:02:21.059Z,32.31
2018-02-15T08:03:25.846Z,32.65
2018-02-15T08:04:31.046Z,32.14
2018-02-15T08:05:36.136Z,32.14
2018-02-15T08:06:41.355Z,32.48
2018-02-15T08:07:47.984Z,32.85
2018-02-15T08:08:52.860Z,33.74
2018-02-15T08:09:58.354Z,32.89
2018-02-15T08:11:05.695Z,33.84
2018-02-15T08:12:13.709Z,33.99
2018-02-15T08:13:18.844Z,34.35
2018-02-15T08:14:23.580Z,33.33
2018-02-15T08:15:28.374Z,34.35
2018-02-15T08:16:33.959Z,34.12
2018-02-15T08:17:39.431Z,33.73
2018-02-15T08:18:44.882Z,34.48
2018-02-15T08:19:49.656Z,32.52
2018-02-15T08:20:54.431Z,32.29
2018-02-15T08:22:00.095Z,33.90
2018-02-15T08:23:05.214Z,34.03
2018-02-15T08:24:11.768Z,33.40
2018-02-15T08:25:18.089Z,33.04
2018-02-15T08:26:22.754Z,34.24
2018-02-15T08:27:27.476Z,33.14
2018-02-15T08:28:33.166Z,33.74
2018-02-15T08:29:37.839Z,31.65
2018-02-15T08:30:42.506Z,33.17
2018-02-15T08:31:47.886Z,33.17
2018-02-15T08:32:52.717Z,33.03
2018-02-15T08:33:57.542Z,31.82
2018-02-15T08:35:02.949Z,32.40
2018-02-15T08:36:08.090Z,32.79
2018-02-15T08:37:12.787Z,31.91
2018-02-15T08:38:18.398Z,32.88
2018-02-15T08:39:24.186Z,33.41
2018-02-15T08:41:39.987Z,31.44
2018-02-15T08:42:45.165Z,32.28
2018-02-15T08:43:50.399Z,32.43
2018-02-15T08:44:57.177Z,32.43
2018-02-15T08:46:01.973Z,31.64
2018-02-15T08:47:06.810Z,33.14
2018-02-15T08:48:11.732Z,31.25
2018-02-15T08:49:16.780Z,31.80
2018-02-15T08:50:21.616Z,30.85
2018-02-15T08:51:26.942Z,32.01
2018-02-15T08:52:32.677Z,31.46
2018-02-15T08:53:38.215Z,32.37
2018-02-15T08:54:43.027Z,33.04
2018-02-15T08:55:47.864Z,31.34
2018-02-15T08:56:53.923Z,32.85
2018-02-15T08:58:00.199Z,31.91
2018-02-15T08:59:05.017Z,31.31
2018-02-15T09:00:11.368Z,32.28
2018-02-15T09:01:16.138Z,32.15
2018-02-15T09:02:21.020Z,30.62
2018-02-15T09:03:27.804Z,32.17
2018-02-15T09:04:33.059Z,31.90
2018-02-15T09:18:56.689Z,30.92
2018-02-15T09:20:01.394Z,30.82
2018-02-15T09:21:06.518Z,29.80
2018-02-15T09:22:11.378Z,31.26
2018-02-15T09:23:16.660Z,30.71
2018-02-15T09:24:21.642Z,31.04
2018-02-15T09:25:26.378Z,30.61
2018-02-15T09:26:31.175Z,30.91
2018-02-15T09:27:36.540Z,30.36
2018-02-15T09:28:41.253Z,31.27
2018-02-15T09:29:46.092Z,30.58
2018-02-15T09:30:51.127Z,31.20
2018-02-15T09:31:55.890Z,31.01
2018-02-15T09:33:00.694Z,30.72
2018-02-15T09:34:05.481Z,30.53
2018-02-15T09:35:10.246Z,30.85
2018-02-15T09:36:14.980Z,29.92
2018-02-15T09:37:20.202Z,30.97
2018-02-15T09:38:25.638Z,30.73
2018-02-15T09:39:30.847Z,31.12
2018-02-15T09:40:35.612Z,31.55
2018-02-15T09:41:40.352Z,29.95
2018-02-15T09:42:45.677Z,30.97
2018-02-15T09:43:50.738Z,30.71
2018-02-15T09:44:55.565Z,30.04
2018-02-15T09:46:00.456Z,30.49
2018-02-15T09:47:05.177Z,31.67
2018-02-15T09:48:09.926Z,30.34
2018-02-15T09:49:14.645Z,30.79
2018-02-15T09:50:19.571Z,31.73
2018-02-15T09:51:24.181Z,31.47
2018-02-15T09:52:28.873Z,30.56
2018-02-15T09:53:33.542Z,30.79
2018-02-15T09:54:38.126Z,30.64
2018-02-15T09:55:42.824Z,30.93
2018-02-15T09:56:47.481Z,30.84
2018-02-15T09:57:52.303Z,30.41
2018-02-15T09:58:57.076Z,30.94
2018-02-15T10:00:01.791Z,30.94
2018-02-15T10:01:06.473Z,31.08
2018-02-15T10:02:14.562Z,30.70
2018-02-15T10:03:20.242Z,29.96
2018-02-15T10:04:24.971Z,29.43
2018-02-15T10:05:29.669Z,29.97
2018-02-15T10:06:35.163Z,30.80
2018-02-15T10:07:40.233Z,30.24
2018-02-15T10:08:47.416Z,30.00
2018-02-15T10:09:52.444Z,30.11
2018-02-15T10:10:57.539Z,29.96
2018-02-15T10:12:02.158Z,30.11
2018-02-15T10:13:06.740Z,29.56
2018-02-15T10:14:11.455Z,29.86
2018-02-15T10:15:16.696Z,30.34
2018-02-15T10:16:22.159Z,29.17
2018-02-15T10:17:28.456Z,30.25
2018-02-15T10:18:33.965Z,30.82
2018-02-15T10:19:38.730Z,30.00
2018-02-15T10:20:43.528Z,30.07
2018-02-15T10:21:48.302Z,30.04
2018-02-15T10:22:54.045Z,30.18
2018-02-15T10:23:58.853Z,30.19
2018-02-15T10:25:03.563Z,29.15
2018-02-15T10:26:08.252Z,29.94
2018-02-15T10:27:13.486Z,30.74
2018-02-15T10:28:18.170Z,29.87
2018-02-15T10:29:22.823Z,30.20
2018-02-15T10:30:29.036Z,29.86
2018-02-15T10:31:33.823Z,30.63
2018-02-15T10:32:39.017Z,30.95
2018-02-15T10:33:44.292Z,30.15
2018-02-15T10:34:49.355Z,30.28
2018-02-15T10:35:53.900Z,29.89
2018-02-15T10:36:58.861Z,30.26
2018-02-15T10:38:03.662Z,30.50
2018-02-15T10:39:08.584Z,30.25
2018-02-15T10:40:13.816Z,30.74
2018-02-15T10:41:18.623Z,30.40
2018-02-15T10:42:24.735Z,29.71
2018-02-15T10:43:29.609Z,30.36
2018-02-15T10:44:34.453Z,30.06
2018-02-15T10:45:39.206Z,30.33
2018-02-15T10:46:44.741Z,31.36
2018-02-15T10:47:49.601Z,32.48
2018-02-15T10:48:54.512Z,33.31
2018-02-15T10:49:59.828Z,34.20
2018-02-15T10:51:04.969Z,36.26
2018-02-15T10:52:09.578Z,36.68
2018-02-15T10:53:14.179Z,35.63
2018-02-15T10:54:19.020Z,35.76
2018-02-15T10:55:24.149Z,36.66
2018-02-15T10:56:29.896Z,35.23
2018-02-15T10:57:35.624Z,36.98
2018-02-15T10:58:41.144Z,36.50
2018-02-15T10:59:46.594Z,36.70
2018-02-15T11:00:55.666Z,35.66
2018-02-15T11:02:04.776Z,35.38
2018-02-15T11:03:13.759Z,36.63
2018-02-15T11:04:23.434Z,36.13
2018-02-15T11:05:30.324Z,36.51
2018-02-15T11:06:36.364Z,35.11
2018-02-15T11:07:41.155Z,35.75
2018-02-15T11:08:45.899Z,35.42
2018-02-15T11:09:50.637Z,34.97
2018-02-15T11:10:55.590Z,35.12
2018-02-15T11:12:00.258Z,35.39
2018-02-15T11:13:04.853Z,36.50
2018-02-15T20:05:20.902Z,33.44
2018-02-15T20:06:34.544Z,33.70
2018-02-15T20:07:44.673Z,33.96
2018-02-15T20:08:58.899Z,34.66
2018-02-15T20:10:10.006Z,36.38
2018-02-15T20:11:23.488Z,37.83
2018-02-15T20:12:37.010Z,38.46
2018-02-15T20:13:50.228Z,38.33
2018-02-15T20:15:02.547Z,38.56
2018-02-15T20:16:13.280Z,38.50
2018-02-15T20:17:22.387Z,38.07
2018-02-15T20:18:34.783Z,37.86
2018-02-15T20:19:54.186Z,37.71
2018-02-15T20:21:05.106Z,36.91
2018-02-15T20:22:18.942Z,37.05
2018-02-15T20:23:32.039Z,36.67
2018-02-15T20:24:43.211Z,36.49
2018-02-15T20:25:58.574Z,36.18
2018-02-15T20:29:15.047Z,36.25
2018-02-15T20:30:25.386Z,35.74
2018-02-15T20:31:39.130Z,35.55
2018-02-15T20:32:51.434Z,35.81
2018-02-15T20:34:04.058Z,35.59
2018-02-15T20:35:15.187Z,35.45
2018-02-15T20:36:25.429Z,35.61
2018-02-15T20:37:40.873Z,35.36
2018-02-15T20:41:00.484Z,35.39
2018-02-15T20:42:11.081Z,35.16
2018-02-15T20:43:20.907Z,35.21
2018-02-15T20:44:31.834Z,35.11
2018-02-15T20:45:41.748Z,35.21
2018-02-15T20:46:54.043Z,35.21
2018-02-15T20:48:04.473Z,35.10
2018-02-15T20:49:19.718Z,35.08
2018-02-15T20:50:33.895Z,35.07
2018-02-15T20:53:55.618Z,35.20
